CheckWX is a tool to help pilots better visualize weather data.  It is not intended as a substitute for an official pre-flight weather briefing.

21:38:18 UTC

KAEG TAF
Double Eagle II Airport
Albuquerque, New Mexico, USA
KAEG 201720Z 2018/2118 12010KT P6SM FEW070 SCT120 FM210300 12011KT P6SM FEW040 BKN120 FM211200 10014G24KT P6SM VCSH SCT040 BKN100 PROB30 2114/2117 12011KT 5SM -RA BR BKN030

Mar-20@
18:00 UTC

Mar-20 @ 18:00 UTC

Mar-21@
03:00 UTC

Mar-21 @ 03:00 UTC

KAEG 201720Z 2018/2118 12010KT P6SM FEW070 SCT120
Wind
  • 120° at 10 KTS
Cloud Levels
  • Few at 7,000' AGL
  • Scattered at 12,000' AGL

Mar-21@
03:00 UTC

Mar-21 @ 03:00 UTC

Mar-21@
12:00 UTC

Mar-21 @ 12:00 UTC

FM210300 12011KT P6SM FEW040 BKN120

From

From Standard forecast or significant change

Wind
  • 120° at 11 KTS
Cloud Levels
  • Few at 4,000' AGL
  • Broken at 12,000' AGL

Mar-21@
12:00 UTC

Mar-21 @ 12:00 UTC

Mar-21@
18:00 UTC

Mar-21 @ 18:00 UTC

FM211200 10014G24KT P6SM VCSH SCT040 BKN100

From

From Standard forecast or significant change

Wind
  • 100° at 14 KTS
  • {Gusting to 24 KTS
Cloud Levels
  • Scattered at 4,000' AGL
  • Broken at 10,000' AGL

Mar-21@
14:00 UTC

Mar-21 @ 14:00 UTC

Mar-21@
17:00 UTC

Mar-21 @ 17:00 UTC

PROB30 2114/2117 12011KT 5SM -RA BR BKN030

Probable - 30% Likelihood

Probable - 30% Likelihood during this time.

Wind
  • 120° at 11 KTS
Conditions
Light Rain, Mist
Cloud Levels
  • Broken at 3,000' AGL